createdAt,value
2023-05-14T00:00:38.847Z,15.80
2023-05-14T00:03:06.251Z,15.70
2023-05-14T00:05:33.889Z,15.70
2023-05-14T00:08:00.969Z,15.80
2023-05-14T00:10:27.954Z,15.70
2023-05-14T00:12:55.151Z,15.70
2023-05-14T00:15:22.291Z,15.80
2023-05-14T00:17:49.798Z,15.80
2023-05-14T00:20:16.871Z,15.80
2023-05-14T00:22:44.056Z,15.80
2023-05-14T00:25:11.178Z,15.80
2023-05-14T00:27:38.855Z,15.80
2023-05-14T00:30:07.078Z,15.80
2023-05-14T00:32:34.999Z,15.80
2023-05-14T00:35:04.402Z,15.80
2023-05-14T00:37:31.615Z,15.80
2023-05-14T00:39:58.853Z,15.70
2023-05-14T00:42:27.178Z,15.70
2023-05-14T00:44:54.444Z,15.80
2023-05-14T00:47:22.113Z,15.80
2023-05-14T00:49:49.232Z,15.80
2023-05-14T00:52:16.612Z,15.80
2023-05-14T00:54:44.678Z,15.80
2023-05-14T00:57:11.729Z,15.80
2023-05-14T00:59:43.868Z,15.80
2023-05-14T01:02:11.875Z,15.80
2023-05-14T01:04:38.949Z,15.80
2023-05-14T01:07:35.135Z,15.80
2023-05-14T01:10:22.263Z,15.80
2023-05-14T01:12:55.697Z,15.90
2023-05-14T01:15:25.850Z,15.80
2023-05-14T01:18:05.616Z,15.80
2023-05-14T01:20:32.670Z,15.80
2023-05-14T01:22:59.709Z,15.80
2023-05-14T01:25:27.010Z,15.80
2023-05-14T01:27:59.940Z,15.80
2023-05-14T01:30:34.562Z,15.80
2023-05-14T01:33:04.423Z,15.80
2023-05-14T01:35:31.503Z,15.80
2023-05-14T01:38:02.381Z,15.80
2023-05-14T01:40:30.435Z,15.80
2023-05-14T01:42:57.510Z,15.80
2023-05-14T01:45:24.609Z,15.80
2023-05-14T01:47:51.783Z,15.90
2023-05-14T01:50:19.099Z,15.90
2023-05-14T01:52:46.801Z,15.80
2023-05-14T01:55:14.032Z,15.90
2023-05-14T01:57:41.351Z,15.80
2023-05-14T02:00:09.430Z,15.90
2023-05-14T02:02:42.748Z,15.80
2023-05-14T02:05:12.597Z,15.80
2023-05-14T02:07:39.784Z,15.80
2023-05-14T02:10:07.646Z,15.70
2023-05-14T02:12:34.850Z,15.70
2023-05-14T02:15:04.816Z,15.70
2023-05-14T02:17:33.008Z,15.70
2023-05-14T02:20:00.162Z,15.70
2023-05-14T02:22:27.307Z,15.70
2023-05-14T02:24:54.459Z,15.80
2023-05-14T02:27:21.874Z,15.80
2023-05-14T02:29:48.909Z,15.80
2023-05-14T02:32:16.021Z,15.80
2023-05-14T02:34:43.009Z,15.80
2023-05-14T02:37:10.011Z,15.80
2023-05-14T02:39:37.787Z,15.80
2023-05-14T02:42:05.654Z,15.80
2023-05-14T02:44:32.655Z,15.80
2023-05-14T02:46:59.872Z,15.80
2023-05-14T02:49:27.217Z,15.80
2023-05-14T02:51:56.983Z,15.80
2023-05-14T02:54:24.090Z,15.80
2023-05-14T02:56:51.936Z,15.80
2023-05-14T02:59:18.942Z,15.70
2023-05-14T03:01:46.982Z,15.80
2023-05-14T03:04:14.360Z,15.70
2023-05-14T03:06:41.412Z,15.70
2023-05-14T03:09:08.444Z,15.70
2023-05-14T03:11:37.352Z,15.70
2023-05-14T03:14:04.390Z,15.70
2023-05-14T03:16:31.434Z,15.70
2023-05-14T03:18:58.591Z,15.60
2023-05-14T03:21:26.174Z,15.70
2023-05-14T03:23:54.057Z,15.70
2023-05-14T03:26:21.684Z,15.70
2023-05-14T03:28:49.879Z,15.70
2023-05-14T03:31:16.963Z,15.60
2023-05-14T03:33:44.077Z,15.50
2023-05-14T03:36:11.180Z,15.50
2023-05-14T03:38:38.903Z,15.50
2023-05-14T03:41:05.958Z,15.60
2023-05-14T03:43:33.020Z,15.60
2023-05-14T03:46:00.015Z,15.70
2023-05-14T03:48:27.430Z,15.80
2023-05-14T03:50:54.575Z,15.80
2023-05-14T03:53:21.601Z,15.80
2023-05-14T03:55:48.664Z,15.90
2023-05-14T03:58:17.488Z,15.90
2023-05-14T04:00:44.533Z,16.00
2023-05-14T04:03:12.073Z,16.10
2023-05-14T04:05:39.185Z,16.30
2023-05-14T04:08:07.171Z,16.40
2023-05-14T04:10:34.200Z,16.60
2023-05-14T04:13:01.552Z,16.70
2023-05-14T04:15:33.046Z,16.80
2023-05-14T04:18:12.296Z,16.90
2023-05-14T04:20:42.574Z,17.00
2023-05-14T04:23:09.913Z,17.10
2023-05-14T04:25:36.876Z,17.20
2023-05-14T04:28:06.007Z,17.30
2023-05-14T04:30:33.870Z,17.20
2023-05-14T04:33:00.957Z,17.20
2023-05-14T04:35:28.176Z,17.10
2023-05-14T04:37:57.091Z,17.20
2023-05-14T04:40:24.459Z,17.20
2023-05-14T04:42:52.070Z,17.20
2023-05-14T04:45:19.228Z,17.20
2023-05-14T04:47:46.736Z,17.20
2023-05-14T04:50:14.287Z,17.20
2023-05-14T04:52:41.400Z,17.20
2023-05-14T04:55:10.602Z,17.30
2023-05-14T04:57:37.894Z,17.30
2023-05-14T05:00:09.701Z,17.30
2023-05-14T05:02:36.766Z,17.30
2023-05-14T05:05:04.215Z,17.40
2023-05-14T05:07:31.401Z,17.40
2023-05-14T05:09:58.521Z,17.60
2023-05-14T05:12:26.036Z,17.50
2023-05-14T05:14:53.043Z,17.70
2023-05-14T05:17:20.911Z,17.70
2023-05-14T05:19:48.137Z,17.70
2023-05-14T05:22:15.201Z,17.80
2023-05-14T05:24:42.346Z,17.80
2023-05-14T05:27:09.516Z,17.80
2023-05-14T05:29:36.867Z,17.90
2023-05-14T05:32:04.738Z,18.00
2023-05-14T05:34:31.760Z,18.10
2023-05-14T05:36:58.808Z,18.20
2023-05-14T05:39:27.005Z,18.40
2023-05-14T05:41:54.600Z,18.50
2023-05-14T05:44:21.610Z,18.60
2023-05-14T05:46:48.783Z,18.70
2023-05-14T05:49:16.011Z,18.70
2023-05-14T05:51:43.052Z,18.70
2023-05-14T05:54:10.297Z,18.70
2023-05-14T05:56:37.866Z,18.80
2023-05-14T05:59:04.893Z,18.80
2023-05-14T06:01:32.573Z,18.70
2023-05-14T06:04:01.674Z,18.60
2023-05-14T06:06:29.322Z,18.60
2023-05-14T06:08:56.857Z,18.70
2023-05-14T06:11:24.068Z,18.70
2023-05-14T06:13:51.587Z,18.80
2023-05-14T06:16:18.866Z,18.80
2023-05-14T06:18:46.493Z,18.80
2023-05-14T06:21:13.655Z,18.90
2023-05-14T06:23:41.321Z,19.00
2023-05-14T06:26:08.974Z,19.10
2023-05-14T06:28:35.925Z,19.20
2023-05-14T06:31:03.438Z,19.30
2023-05-14T06:33:31.336Z,19.40
2023-05-14T06:36:06.798Z,19.40
2023-05-14T06:38:34.352Z,19.40
2023-05-14T06:41:01.371Z,19.50
2023-05-14T06:43:28.590Z,19.40
2023-05-14T06:45:55.565Z,19.50
2023-05-14T06:48:24.034Z,19.70
2023-05-14T06:50:51.950Z,19.60
2023-05-14T06:53:21.570Z,19.70
2023-05-14T06:55:48.906Z,19.80
2023-05-14T06:58:15.931Z,19.80
2023-05-14T07:00:43.375Z,19.90
2023-05-14T07:03:10.450Z,19.80
2023-05-14T07:05:37.545Z,19.80
2023-05-14T07:08:07.219Z,19.90
2023-05-14T07:10:35.027Z,20.10
2023-05-14T07:13:03.326Z,20.10
2023-05-14T07:15:30.870Z,20.10
2023-05-14T07:17:57.910Z,20.00
2023-05-14T07:20:26.117Z,19.80
2023-05-14T07:22:53.358Z,19.50
2023-05-14T07:25:20.857Z,19.40
2023-05-14T07:27:48.011Z,19.40
2023-05-14T07:30:15.073Z,19.50
2023-05-14T07:32:42.312Z,19.50
2023-05-14T07:35:10.108Z,19.50
2023-05-14T07:37:40.614Z,19.60
2023-05-14T07:40:08.243Z,19.70
2023-05-14T07:42:37.050Z,19.80
2023-05-14T07:45:05.696Z,19.80
2023-05-14T07:47:33.398Z,19.80
2023-05-14T07:50:00.658Z,19.80
2023-05-14T07:52:27.827Z,19.90
2023-05-14T07:54:55.213Z,19.90
2023-05-14T07:57:22.691Z,19.90
2023-05-14T07:59:49.895Z,19.90
2023-05-14T08:02:17.740Z,20.00
2023-05-14T08:04:45.264Z,19.90
2023-05-14T08:07:12.330Z,19.80
2023-05-14T08:09:39.916Z,19.80
2023-05-14T08:12:10.531Z,19.80
2023-05-14T08:14:37.620Z,19.70
2023-05-14T08:17:05.185Z,19.50
2023-05-14T08:19:33.031Z,19.40
2023-05-14T08:22:00.024Z,19.30
2023-05-14T08:24:27.142Z,19.30
2023-05-14T08:26:54.998Z,19.30
2023-05-14T08:29:22.129Z,19.10
2023-05-14T08:31:49.928Z,19.00
2023-05-14T08:34:17.667Z,18.90
2023-05-14T08:36:44.674Z,18.80
2023-05-14T08:39:11.768Z,18.80
2023-05-14T08:41:38.914Z,18.80
2023-05-14T08:44:13.870Z,18.90
2023-05-14T08:46:43.193Z,19.10
2023-05-14T08:49:37.057Z,19.10
2023-05-14T08:52:04.492Z,19.20
2023-05-14T08:54:32.802Z,18.90
2023-05-14T08:57:00.501Z,18.90
2023-05-14T08:59:27.868Z,18.80
2023-05-14T09:01:55.055Z,18.80
2023-05-14T09:04:23.869Z,18.80
2023-05-14T09:06:53.571Z,18.80
2023-05-14T09:09:23.561Z,18.80
2023-05-14T09:11:51.784Z,18.70
2023-05-14T09:14:19.095Z,18.70
2023-05-14T09:16:47.773Z,18.50
2023-05-14T09:19:15.853Z,18.40
2023-05-14T09:21:43.249Z,18.20
2023-05-14T09:24:10.222Z,18.30
2023-05-14T09:26:37.862Z,18.30
2023-05-14T09:29:05.096Z,18.20
2023-05-14T09:31:33.321Z,18.20
2023-05-14T09:34:00.676Z,18.20
2023-05-14T09:36:27.762Z,18.20
2023-05-14T09:38:58.029Z,18.20
2023-05-14T09:41:25.756Z,18.30
2023-05-14T09:43:53.896Z,18.30
2023-05-14T09:46:21.949Z,18.30
2023-05-14T09:48:49.111Z,18.40
2023-05-14T09:51:21.004Z,18.30
2023-05-14T09:53:48.645Z,18.30
2023-05-14T09:56:16.520Z,18.30
2023-05-14T09:58:46.379Z,18.30
2023-05-14T10:01:14.193Z,18.30
2023-05-14T10:03:41.245Z,18.40
2023-05-14T10:06:10.610Z,18.40
2023-05-14T10:08:38.952Z,18.40
2023-05-14T10:11:08.778Z,18.40
2023-05-14T10:13:39.784Z,18.50
2023-05-14T10:16:12.785Z,18.60
2023-05-14T10:18:41.326Z,18.50
2023-05-14T10:21:08.477Z,18.30
2023-05-14T10:23:37.875Z,18.30
2023-05-14T10:26:05.086Z,18.40
2023-05-14T10:28:32.530Z,18.40
2023-05-14T10:31:00.690Z,18.50
2023-05-14T10:33:28.393Z,18.50
2023-05-14T10:35:56.623Z,18.40
2023-05-14T10:38:28.118Z,18.30
2023-05-14T10:41:06.947Z,18.30
2023-05-14T10:43:38.473Z,18.30
2023-05-14T10:46:05.676Z,18.30
2023-05-14T10:48:33.793Z,18.20
2023-05-14T10:51:01.493Z,18.30
2023-05-14T10:53:41.569Z,18.30
2023-05-14T10:56:12.870Z,18.40
2023-05-14T10:58:43.988Z,18.50
2023-05-14T11:01:12.253Z,18.50
2023-05-14T11:03:46.778Z,18.50
2023-05-14T11:06:15.165Z,18.50
2023-05-14T11:08:42.738Z,18.50
2023-05-14T11:11:10.095Z,18.50
2023-05-14T11:13:37.458Z,18.50
2023-05-14T11:16:18.929Z,18.50
2023-05-14T11:18:54.964Z,18.60
2023-05-14T11:21:22.108Z,18.50
2023-05-14T11:23:49.214Z,18.50
2023-05-14T11:26:17.547Z,18.50
2023-05-14T11:28:48.966Z,18.50
2023-05-14T11:31:16.572Z,18.50
2023-05-14T11:33:44.073Z,18.40
2023-05-14T11:36:12.097Z,18.30
2023-05-14T11:38:49.035Z,18.20
2023-05-14T11:41:16.810Z,18.20
2023-05-14T11:43:43.891Z,18.20
2023-05-14T11:46:17.606Z,18.20
2023-05-14T11:48:44.838Z,18.20
2023-05-14T11:51:11.882Z,18.20
2023-05-14T11:53:40.222Z,18.30
2023-05-14T11:56:20.342Z,18.30
2023-05-14T11:58:55.136Z,18.30
2023-05-14T12:01:23.019Z,18.30
2023-05-14T12:03:50.883Z,18.40
2023-05-14T12:06:18.616Z,18.40
2023-05-14T12:08:47.715Z,18.40
2023-05-14T12:11:14.765Z,18.30
2023-05-14T12:13:41.762Z,18.30
2023-05-14T12:16:09.023Z,18.30
2023-05-14T12:18:37.237Z,18.40
2023-05-14T12:21:05.072Z,18.40
2023-05-14T12:23:32.471Z,18.50
2023-05-14T12:26:07.072Z,18.50
2023-05-14T12:28:37.548Z,18.40
2023-05-14T12:31:05.913Z,18.30
2023-05-14T12:33:33.465Z,18.30
2023-05-14T12:36:07.400Z,18.30
2023-05-14T12:38:41.645Z,18.30
2023-05-14T12:41:08.639Z,18.30
2023-05-14T12:43:35.788Z,18.30
2023-05-14T12:46:03.350Z,18.40
2023-05-14T12:48:30.677Z,18.40
2023-05-14T12:50:57.666Z,18.50
2023-05-14T12:53:24.892Z,18.40
2023-05-14T12:55:51.931Z,18.40
2023-05-14T12:58:19.014Z,18.30
2023-05-14T13:00:47.006Z,18.30
2023-05-14T13:03:14.158Z,18.20
2023-05-14T13:05:41.238Z,18.20
2023-05-14T13:08:09.020Z,18.20
2023-05-14T13:10:36.050Z,18.20
2023-05-14T13:13:03.614Z,18.20
2023-05-14T13:15:32.504Z,18.20
2023-05-14T13:17:59.790Z,18.20
2023-05-14T13:20:27.605Z,18.20
2023-05-14T13:22:54.846Z,18.20
2023-05-14T13:25:21.895Z,18.20
2023-05-14T13:27:51.087Z,18.10
2023-05-14T13:30:18.586Z,18.10
2023-05-14T13:32:45.800Z,18.10
2023-05-14T13:35:13.010Z,18.10
2023-05-14T13:37:40.037Z,18.10
2023-05-14T13:40:08.371Z,18.10
2023-05-14T13:42:36.084Z,18.20
2023-05-14T13:45:04.165Z,18.20
2023-05-14T13:47:34.194Z,18.20
2023-05-14T13:50:01.507Z,18.20
2023-05-14T13:52:32.121Z,18.20
2023-05-14T13:54:59.174Z,18.20
2023-05-14T13:57:26.489Z,18.20
2023-05-14T13:59:54.015Z,18.20
2023-05-14T14:02:22.111Z,18.20
2023-05-14T14:04:49.549Z,18.30
2023-05-14T14:07:16.704Z,18.30
2023-05-14T14:09:45.177Z,18.20
2023-05-14T14:12:12.229Z,18.30
2023-05-14T14:14:39.344Z,18.30
2023-05-14T14:17:06.557Z,18.20
2023-05-14T14:19:33.528Z,18.20
2023-05-14T14:22:02.555Z,18.20
2023-05-14T14:24:29.624Z,18.20
2023-05-14T14:27:01.834Z,18.20
2023-05-14T14:29:31.117Z,18.20
2023-05-14T14:31:59.146Z,18.20
2023-05-14T14:34:26.718Z,18.20
2023-05-14T14:36:53.811Z,18.20
2023-05-14T14:39:21.226Z,18.30
2023-05-14T14:41:48.509Z,18.30
2023-05-14T14:44:15.582Z,18.30
2023-05-14T14:46:42.975Z,18.30
2023-05-14T14:49:10.013Z,18.30
2023-05-14T14:51:39.833Z,18.30
2023-05-14T14:54:06.852Z,18.30
2023-05-14T14:56:33.903Z,18.30
2023-05-14T14:59:01.873Z,18.40
2023-05-14T15:01:29.450Z,18.40
2023-05-14T15:03:56.605Z,18.30
2023-05-14T15:06:23.664Z,18.30
2023-05-14T15:08:51.025Z,18.30
2023-05-14T15:11:18.073Z,18.30
2023-05-14T15:13:45.220Z,18.30
2023-05-14T15:16:13.603Z,18.20
2023-05-14T15:18:40.804Z,18.20
2023-05-14T15:21:07.899Z,18.00
2023-05-14T15:23:35.053Z,17.90
2023-05-14T15:26:02.593Z,17.80
2023-05-14T15:28:29.604Z,17.70
2023-05-14T15:30:57.406Z,17.60
2023-05-14T15:33:26.048Z,17.50
2023-05-14T15:35:54.814Z,17.50
2023-05-14T15:38:22.047Z,17.50
2023-05-14T15:40:50.874Z,17.30
2023-05-14T15:43:17.862Z,17.20
2023-05-14T15:45:45.620Z,17.00
2023-05-14T15:48:12.727Z,16.90
2023-05-14T15:50:40.879Z,16.80
2023-05-14T15:53:09.738Z,16.80
2023-05-14T15:55:36.808Z,16.80
2023-05-14T15:58:07.794Z,16.80
2023-05-14T16:00:34.992Z,16.80
2023-05-14T16:03:02.145Z,16.80
2023-05-14T16:05:29.446Z,16.80
2023-05-14T16:07:56.853Z,16.70
2023-05-14T16:10:24.101Z,16.70
2023-05-14T16:12:51.381Z,16.70
2023-05-14T16:15:18.493Z,16.70
2023-05-14T16:17:45.575Z,16.70
2023-05-14T16:20:12.767Z,16.70
2023-05-14T16:22:40.414Z,16.70
2023-05-14T16:25:07.816Z,16.70
2023-05-14T16:27:34.791Z,16.70
2023-05-14T16:30:01.964Z,16.70
2023-05-14T16:32:29.417Z,16.70
2023-05-14T16:34:56.639Z,16.70
2023-05-14T16:37:24.007Z,16.70
2023-05-14T16:39:51.893Z,16.70
2023-05-14T16:42:18.936Z,16.70
2023-05-14T16:44:45.969Z,16.70
2023-05-14T16:47:13.071Z,16.70
2023-05-14T16:49:40.271Z,16.70
2023-05-14T16:52:09.280Z,16.70
2023-05-14T16:54:37.272Z,16.70
2023-05-14T16:57:04.548Z,16.70
2023-05-14T16:59:31.852Z,16.70
2023-05-14T17:01:58.976Z,16.70
2023-05-14T17:04:27.913Z,16.60
2023-05-14T17:06:55.951Z,16.60
2023-05-14T17:09:23.105Z,16.60
2023-05-14T17:11:50.870Z,16.50
2023-05-14T17:14:18.552Z,16.60
2023-05-14T17:16:45.607Z,16.60
2023-05-14T17:19:12.701Z,16.60
2023-05-14T17:21:39.890Z,16.60
2023-05-14T17:24:07.033Z,16.60
2023-05-14T17:26:34.099Z,16.50
2023-05-14T17:29:01.796Z,16.50
2023-05-14T17:31:28.882Z,16.40
2023-05-14T17:33:56.340Z,16.30
2023-05-14T17:36:25.796Z,16.30
2023-05-14T17:38:52.817Z,16.20
2023-05-14T17:41:19.877Z,16.20
2023-05-14T17:43:47.057Z,16.20
2023-05-14T17:46:14.215Z,16.10
2023-05-14T17:48:41.321Z,16.20
2023-05-14T17:51:09.188Z,16.20
2023-05-14T17:53:36.893Z,16.20
2023-05-14T17:56:04.876Z,16.10
2023-05-14T17:58:31.928Z,16.10
2023-05-14T18:00:59.119Z,16.00
2023-05-14T18:03:26.300Z,16.00
2023-05-14T18:05:54.356Z,16.10
2023-05-14T18:08:21.490Z,16.10
2023-05-14T18:10:49.421Z,16.20
2023-05-14T18:13:16.427Z,16.20
2023-05-14T18:15:43.507Z,16.30
2023-05-14T18:18:10.796Z,16.20
2023-05-14T18:20:38.173Z,16.30
2023-05-14T18:23:06.254Z,16.30
2023-05-14T18:25:35.552Z,16.30
2023-05-14T18:28:04.521Z,16.30
2023-05-14T18:30:31.543Z,16.30
2023-05-14T18:32:59.885Z,16.30
2023-05-14T18:35:29.006Z,16.30
2023-05-14T18:37:56.098Z,16.30
2023-05-14T18:40:23.193Z,16.20
2023-05-14T18:42:50.468Z,16.20
2023-05-14T18:45:17.614Z,16.30
2023-05-14T18:47:44.671Z,16.20
2023-05-14T18:50:11.741Z,16.20
2023-05-14T18:52:38.989Z,16.20
2023-05-14T18:55:07.993Z,16.00
2023-05-14T18:57:35.786Z,16.10
2023-05-14T19:00:04.536Z,16.10
2023-05-14T19:02:33.245Z,16.20
2023-05-14T19:05:00.343Z,16.10
2023-05-14T19:07:27.755Z,16.10
2023-05-14T19:09:55.494Z,16.10
2023-05-14T19:12:22.674Z,16.10
2023-05-14T19:14:49.834Z,16.10
2023-05-14T19:17:18.455Z,16.10
2023-05-14T19:19:46.239Z,16.10
2023-05-14T19:22:13.204Z,16.10
2023-05-14T19:24:40.490Z,16.20
2023-05-14T19:27:08.104Z,16.20
2023-05-14T19:29:36.830Z,16.20
2023-05-14T19:32:04.825Z,16.20
2023-05-14T19:34:31.866Z,16.10
2023-05-14T19:37:01.271Z,15.90
2023-05-14T19:39:28.391Z,15.80
2023-05-14T19:41:55.358Z,15.80
2023-05-14T19:44:22.377Z,15.80
2023-05-14T19:46:49.629Z,15.80
2023-05-14T19:49:16.779Z,15.80
2023-05-14T19:51:43.770Z,15.80
2023-05-14T19:54:10.879Z,15.80
2023-05-14T19:56:40.453Z,15.70
2023-05-14T19:59:07.462Z,15.70
2023-05-14T20:01:35.013Z,15.70
2023-05-14T20:04:02.851Z,15.70
2023-05-14T20:06:29.911Z,15.70
2023-05-14T20:08:57.458Z,15.70
2023-05-14T20:11:25.280Z,15.70
2023-05-14T20:13:56.892Z,15.60
2023-05-14T20:16:23.947Z,15.60
2023-05-14T20:18:53.089Z,15.50
2023-05-14T20:21:20.135Z,15.50
2023-05-14T20:23:47.207Z,15.40
2023-05-14T20:26:14.301Z,15.30
2023-05-14T20:28:44.591Z,15.30
2023-05-14T20:31:11.729Z,15.20
2023-05-14T20:33:38.738Z,15.20
2023-05-14T20:36:05.852Z,15.20
2023-05-14T20:38:34.927Z,15.20
2023-05-14T20:41:02.442Z,15.20
2023-05-14T20:43:30.547Z,15.20
2023-05-14T20:45:58.968Z,15.20
2023-05-14T20:48:26.099Z,15.20
2023-05-14T20:50:53.157Z,15.20
2023-05-14T20:53:20.397Z,15.00
2023-05-14T20:55:47.757Z,15.00
2023-05-14T20:58:14.741Z,15.00
2023-05-14T21:00:41.754Z,15.00
2023-05-14T21:03:09.861Z,15.00
2023-05-14T21:05:37.200Z,15.00
2023-05-14T21:08:04.282Z,15.10
2023-05-14T21:10:31.432Z,15.00
2023-05-14T21:12:58.348Z,15.00
2023-05-14T21:15:27.377Z,15.00
2023-05-14T21:17:54.706Z,15.20
2023-05-14T21:20:21.747Z,15.20
2023-05-14T21:22:48.874Z,15.20
2023-05-14T21:25:16.538Z,15.30
2023-05-14T21:27:43.507Z,15.30
2023-05-14T21:30:11.149Z,15.30
2023-05-14T21:32:38.157Z,15.20
2023-05-14T21:35:06.964Z,15.30
2023-05-14T21:37:34.069Z,15.30
2023-05-14T21:40:01.021Z,15.40
2023-05-14T21:42:28.045Z,15.40
2023-05-14T21:44:56.002Z,15.50
2023-05-14T21:47:23.077Z,15.50
2023-05-14T21:49:50.037Z,15.60
2023-05-14T21:52:17.591Z,15.70
2023-05-14T21:54:44.541Z,15.70
2023-05-14T21:57:11.626Z,15.70
2023-05-14T21:59:38.696Z,15.60
2023-05-14T22:02:07.461Z,15.70
2023-05-14T22:04:36.869Z,15.70
2023-05-14T22:07:04.632Z,15.70
2023-05-14T22:09:34.694Z,15.70
2023-05-14T22:12:02.447Z,15.70
2023-05-14T22:14:29.473Z,15.70
2023-05-14T22:16:57.053Z,15.80
2023-05-14T22:19:25.796Z,15.80
2023-05-14T22:21:52.891Z,15.80
2023-05-14T22:24:19.877Z,15.80
2023-05-14T22:26:46.965Z,15.80
2023-05-14T22:29:13.968Z,15.90
2023-05-14T22:31:40.936Z,15.90
2023-05-14T22:34:08.388Z,15.80
2023-05-14T22:36:36.444Z,15.80
2023-05-14T22:39:04.586Z,15.70
2023-05-14T22:41:31.843Z,15.70
2023-05-14T22:43:58.852Z,15.70
2023-05-14T22:46:26.308Z,15.70
2023-05-14T22:48:54.008Z,15.80
2023-05-14T22:51:21.160Z,15.70
2023-05-14T22:53:48.580Z,15.70
2023-05-14T22:56:15.904Z,15.70
2023-05-14T22:58:42.845Z,15.70
2023-05-14T23:01:09.824Z,15.70
2023-05-14T23:03:37.381Z,15.80
2023-05-14T23:06:05.120Z,15.80
2023-05-14T23:08:32.369Z,15.70
2023-05-14T23:10:59.784Z,15.80
2023-05-14T23:13:27.484Z,15.70
2023-05-14T23:15:54.824Z,15.80
2023-05-14T23:18:24.028Z,15.80
2023-05-14T23:20:51.243Z,15.80
2023-05-14T23:23:18.279Z,15.70
2023-05-14T23:25:45.418Z,15.70
2023-05-14T23:28:12.561Z,15.70
2023-05-14T23:30:39.599Z,15.80
2023-05-14T23:33:06.951Z,15.80
2023-05-14T23:35:34.936Z,15.80
2023-05-14T23:38:02.238Z,15.80
2023-05-14T23:40:29.625Z,15.80
2023-05-14T23:42:59.310Z,15.80
2023-05-14T23:45:27.386Z,15.80
2023-05-14T23:47:55.178Z,15.80
2023-05-14T23:50:22.226Z,15.80
2023-05-14T23:52:52.988Z,15.70
2023-05-14T23:55:20.858Z,15.70
2023-05-14T23:57:48.346Z,15.80
